sensor_id;sensor_type;location;lat;lon;timestamp;temperature;humidity
31991;DHT22;18508;49.386;8.370;2024-03-23T00:54:19;10.90;1.00
31991;DHT22;18508;49.386;8.370;2024-03-23T00:56:47;10.90;1.00
31991;DHT22;18508;49.386;8.370;2024-03-23T00:59:13;10.80;99.90
31991;DHT22;18508;49.386;8.370;2024-03-23T01:01:40;10.80;99.90
31991;DHT22;18508;49.386;8.370;2024-03-23T01:04:06;10.80;99.90
31991;DHT22;18508;49.386;8.370;2024-03-23T01:06:34;10.90;99.90
31991;DHT22;18508;49.386;8.370;2024-03-23T01:09:00;11.00;77.80
31991;DHT22;18508;49.386;8.370;2024-03-23T01:11:27;11.00;1.00
31991;DHT22;18508;49.386;8.370;2024-03-23T01:13:55;11.10;99.90
31991;DHT22;18508;49.386;8.370;2024-03-23T01:16:22;11.20;99.90
31991;DHT22;18508;49.386;8.370;2024-03-23T01:18:48;11.30;1.00
31991;DHT22;18508;49.386;8.370;2024-03-23T01:21:15;11.40;1.00
31991;DHT22;18508;49.386;8.370;2024-03-23T01:23:42;11.40;1.00
31991;DHT22;18508;49.386;8.370;2024-03-23T01:26:09;11.40;99.90
31991;DHT22;18508;49.386;8.370;2024-03-23T01:28:35;11.50;99.90
31991;DHT22;18508;49.386;8.370;2024-03-23T01:31:04;11.50;99.90
31991;DHT22;18508;49.386;8.370;2024-03-23T01:33:30;11.50;99.90
31991;DHT22;18508;49.386;8.370;2024-03-23T01:35:58;11.50;99.90
31991;DHT22;18508;49.386;8.370;2024-03-23T01:38:24;11.50;99.90
31991;DHT22;18508;49.386;8.370;2024-03-23T01:40:56;11.60;99.90
31991;DHT22;18508;49.386;8.370;2024-03-23T01:43:23;11.60;99.90
31991;DHT22;18508;49.386;8.370;2024-03-23T01:45:50;11.60;99.90
31991;DHT22;18508;49.386;8.370;2024-03-23T01:48:18;11.40;99.90
31991;DHT22;18508;49.386;8.370;2024-03-23T01:50:46;11.30;98.90
31991;DHT22;18508;49.386;8.370;2024-03-23T01:53:12;11.60;99.90
31991;DHT22;18508;49.386;8.370;2024-03-23T01:55:43;11.70;1.00
31991;DHT22;18508;49.386;8.370;2024-03-23T01:58:09;11.70;1.00
31991;DHT22;18508;49.386;8.370;2024-03-23T02:00:36;11.70;1.00
31991;DHT22;18508;49.386;8.370;2024-03-23T02:03:02;11.80;1.00
31991;DHT22;18508;49.386;8.370;2024-03-23T02:05:31;11.90;99.90
31991;DHT22;18508;49.386;8.370;2024-03-23T02:07:57;11.90;99.90
31991;DHT22;18508;49.386;8.370;2024-03-23T02:10:24;11.90;99.90
31991;DHT22;18508;49.386;8.370;2024-03-23T02:12:50;12.00;99.90
31991;DHT22;18508;49.386;8.370;2024-03-23T02:15:17;12.00;99.90
31991;DHT22;18508;49.386;8.370;2024-03-23T02:17:43;12.00;99.90
31991;DHT22;18508;49.386;8.370;2024-03-23T02:20:12;12.00;99.90
31991;DHT22;18508;49.386;8.370;2024-03-23T02:22:39;12.00;99.90
31991;DHT22;18508;49.386;8.370;2024-03-23T02:25:08;12.00;99.90
31991;DHT22;18508;49.386;8.370;2024-03-23T02:27:34;12.00;99.90
31991;DHT22;18508;49.386;8.370;2024-03-23T02:30:02;12.10;99.90
31991;DHT22;18508;49.386;8.370;2024-03-23T02:32:28;12.10;95.40
31991;DHT22;18508;49.386;8.370;2024-03-23T02:34:55;12.10;99.90
31991;DHT22;18508;49.386;8.370;2024-03-23T02:37:21;12.10;99.90
31991;DHT22;18508;49.386;8.370;2024-03-23T02:39:48;12.10;99.90
31991;DHT22;18508;49.386;8.370;2024-03-23T02:42:16;12.10;99.90
31991;DHT22;18508;49.386;8.370;2024-03-23T02:44:44;12.00;99.90
31991;DHT22;18508;49.386;8.370;2024-03-23T02:47:10;12.00;99.90
31991;DHT22;18508;49.386;8.370;2024-03-23T02:49:37;12.00;99.90
31991;DHT22;18508;49.386;8.370;2024-03-23T02:52:03;12.00;99.90
31991;DHT22;18508;49.386;8.370;2024-03-23T02:54:31;11.90;1.00
31991;DHT22;18508;49.386;8.370;2024-03-23T02:56:57;11.80;1.00
31991;DHT22;18508;49.386;8.370;2024-03-23T02:59:25;11.80;1.00
31991;DHT22;18508;49.386;8.370;2024-03-23T03:01:51;11.80;1.00
31991;DHT22;18508;49.386;8.370;2024-03-23T03:04:18;11.70;82.20
31991;DHT22;18508;49.386;8.370;2024-03-23T03:06:46;11.60;99.90
31991;DHT22;18508;49.386;8.370;2024-03-23T03:09:13;11.60;1.00
31991;DHT22;18508;49.386;8.370;2024-03-23T03:11:40;11.60;1.00
31991;DHT22;18508;49.386;8.370;2024-03-23T03:14:07;11.60;99.90
31991;DHT22;18508;49.386;8.370;2024-03-23T03:16:35;11.50;99.90
31991;DHT22;18508;49.386;8.370;2024-03-23T03:19:02;11.50;99.90
31991;DHT22;18508;49.386;8.370;2024-03-23T03:21:28;11.40;1.00
31991;DHT22;18508;49.386;8.370;2024-03-23T03:23:58;11.40;1.00
31991;DHT22;18508;49.386;8.370;2024-03-23T03:26:24;11.40;1.00
31991;DHT22;18508;49.386;8.370;2024-03-23T03:28:51;11.40;60.70
31991;DHT22;18508;49.386;8.370;2024-03-23T03:31:17;11.30;99.90
31991;DHT22;18508;49.386;8.370;2024-03-23T03:33:46;11.40;1.00
31991;DHT22;18508;49.386;8.370;2024-03-23T03:36:12;11.40;99.90
31991;DHT22;18508;49.386;8.370;2024-03-23T03:38:39;11.40;99.90
31991;DHT22;18508;49.386;8.370;2024-03-23T03:41:05;11.40;63.20
31991;DHT22;18508;49.386;8.370;2024-03-23T03:43:33;11.40;27.40
31991;DHT22;18508;49.386;8.370;2024-03-23T03:46:00;11.50;99.90
31991;DHT22;18508;49.386;8.370;2024-03-23T03:48:27;11.50;1.00
31991;DHT22;18508;49.386;8.370;2024-03-23T03:50:55;11.60;1.00
31991;DHT22;18508;49.386;8.370;2024-03-23T03:53:22;11.60;1.00
31991;DHT22;18508;49.386;8.370;2024-03-23T03:55:48;11.60;1.00
31991;DHT22;18508;49.386;8.370;2024-03-23T03:58:16;11.70;99.90
31991;DHT22;18508;49.386;8.370;2024-03-23T04:00:42;11.80;99.90
31991;DHT22;18508;49.386;8.370;2024-03-23T04:03:09;11.90;99.90
31991;DHT22;18508;49.386;8.370;2024-03-23T04:05:35;12.00;99.90
31991;DHT22;18508;49.386;8.370;2024-03-23T04:08:04;12.10;99.90
31991;DHT22;18508;49.386;8.370;2024-03-23T04:10:30;12.10;99.90
31991;DHT22;18508;49.386;8.370;2024-03-23T04:12:57;12.10;99.90
31991;DHT22;18508;49.386;8.370;2024-03-23T04:15:23;12.20;99.90
31991;DHT22;18508;49.386;8.370;2024-03-23T04:17:50;12.30;99.90
31991;DHT22;18508;49.386;8.370;2024-03-23T04:20:17;12.30;99.90
31991;DHT22;18508;49.386;8.370;2024-03-23T04:22:44;12.30;99.90
31991;DHT22;18508;49.386;8.370;2024-03-23T04:25:12;12.30;99.90
31991;DHT22;18508;49.386;8.370;2024-03-23T04:27:39;12.20;99.90
31991;DHT22;18508;49.386;8.370;2024-03-23T04:30:07;12.20;99.90
31991;DHT22;18508;49.386;8.370;2024-03-23T04:32:36;12.20;99.90
31991;DHT22;18508;49.386;8.370;2024-03-23T04:35:03;12.20;99.90
31991;DHT22;18508;49.386;8.370;2024-03-23T04:37:32;12.20;99.90
31991;DHT22;18508;49.386;8.370;2024-03-23T04:39:59;12.20;99.90
31991;DHT22;18508;49.386;8.370;2024-03-23T04:42:28;12.20;99.90
31991;DHT22;18508;49.386;8.370;2024-03-23T04:44:56;12.10;99.90
31991;DHT22;18508;49.386;8.370;2024-03-23T04:47:23;12.10;99.90
31991;DHT22;18508;49.386;8.370;2024-03-23T04:49:50;12.10;99.90
31991;DHT22;18508;49.386;8.370;2024-03-23T04:52:17;12.10;99.90
31991;DHT22;18508;49.386;8.370;2024-03-23T04:54:45;12.10;99.90
31991;DHT22;18508;49.386;8.370;2024-03-23T04:57:11;12.00;99.90
31991;DHT22;18508;49.386;8.370;2024-03-23T04:59:40;12.00;99.90
31991;DHT22;18508;49.386;8.370;2024-03-23T05:02:06;11.90;99.90
31991;DHT22;18508;49.386;8.370;2024-03-23T05:04:33;11.80;99.90
31991;DHT22;18508;49.386;8.370;2024-03-23T05:06:59;11.80;99.90
31991;DHT22;18508;49.386;8.370;2024-03-23T05:09:26;11.70;99.90
31991;DHT22;18508;49.386;8.370;2024-03-23T05:11:55;11.70;99.90
31991;DHT22;18508;49.386;8.370;2024-03-23T05:14:23;11.60;99.90
31991;DHT22;18508;49.386;8.370;2024-03-23T05:16:50;11.50;99.90
31991;DHT22;18508;49.386;8.370;2024-03-23T05:19:17;11.50;99.90
31991;DHT22;18508;49.386;8.370;2024-03-23T05:21:44;11.40;99.90
31991;DHT22;18508;49.386;8.370;2024-03-23T05:24:11;11.40;99.90
31991;DHT22;18508;49.386;8.370;2024-03-23T05:26:37;11.30;99.90
31991;DHT22;18508;49.386;8.370;2024-03-23T05:29:05;11.30;99.90
31991;DHT22;18508;49.386;8.370;2024-03-23T05:31:36;11.20;99.90
31991;DHT22;18508;49.386;8.370;2024-03-23T05:34:05;11.20;1.00
31991;DHT22;18508;49.386;8.370;2024-03-23T05:36:31;10.90;99.90
31991;DHT22;18508;49.386;8.370;2024-03-23T05:38:58;10.50;99.90
31991;DHT22;18508;49.386;8.370;2024-03-23T05:41:24;10.20;99.90
31991;DHT22;18508;49.386;8.370;2024-03-23T05:43:54;10.00;1.00
31991;DHT22;18508;49.386;8.370;2024-03-23T05:46:20;9.90;1.00
31991;DHT22;18508;49.386;8.370;2024-03-23T05:48:47;9.90;1.00
31991;DHT22;18508;49.386;8.370;2024-03-23T05:51:15;9.80;1.00
31991;DHT22;18508;49.386;8.370;2024-03-23T05:53:43;9.80;1.00
31991;DHT22;18508;49.386;8.370;2024-03-23T05:56:09;9.70;1.00
31991;DHT22;18508;49.386;8.370;2024-03-23T05:58:36;9.70;1.00
31991;DHT22;18508;49.386;8.370;2024-03-23T06:01:02;9.60;1.00
31991;DHT22;18508;49.386;8.370;2024-03-23T06:03:30;9.60;1.00
31991;DHT22;18508;49.386;8.370;2024-03-23T06:05:56;9.60;1.00
31991;DHT22;18508;49.386;8.370;2024-03-23T06:08:25;9.50;1.00
31991;DHT22;18508;49.386;8.370;2024-03-23T06:10:51;9.50;1.00
31991;DHT22;18508;49.386;8.370;2024-03-23T06:13:18;9.40;1.00
31991;DHT22;18508;49.386;8.370;2024-03-23T06:15:44;9.50;1.00
31991;DHT22;18508;49.386;8.370;2024-03-23T06:18:12;9.50;1.00
31991;DHT22;18508;49.386;8.370;2024-03-23T06:20:38;9.50;1.00
31991;DHT22;18508;49.386;8.370;2024-03-23T06:23:06;9.60;1.00
31991;DHT22;18508;49.386;8.370;2024-03-23T06:25:33;9.60;99.90
31991;DHT22;18508;49.386;8.370;2024-03-23T06:28:00;9.50;99.90
31991;DHT22;18508;49.386;8.370;2024-03-23T06:30:28;9.50;99.90
31991;DHT22;18508;49.386;8.370;2024-03-23T06:32:55;9.50;99.90
31991;DHT22;18508;49.386;8.370;2024-03-23T06:35:21;9.50;99.90
31991;DHT22;18508;49.386;8.370;2024-03-23T06:37:48;9.50;1.00
31991;DHT22;18508;49.386;8.370;2024-03-23T06:40:15;9.40;1.00
31991;DHT22;18508;49.386;8.370;2024-03-23T06:42:43;9.50;1.00
31991;DHT22;18508;49.386;8.370;2024-03-23T06:45:09;9.40;99.90
31991;DHT22;18508;49.386;8.370;2024-03-23T06:47:37;9.40;99.90
31991;DHT22;18508;49.386;8.370;2024-03-23T06:50:04;9.40;99.90
31991;DHT22;18508;49.386;8.370;2024-03-23T06:52:31;9.30;99.90
31991;DHT22;18508;49.386;8.370;2024-03-23T06:54:57;9.40;99.90
31991;DHT22;18508;49.386;8.370;2024-03-23T06:57:25;9.40;99.90
31991;DHT22;18508;49.386;8.370;2024-03-23T06:59:52;9.40;99.90
31991;DHT22;18508;49.386;8.370;2024-03-23T07:02:19;9.50;99.90
31991;DHT22;18508;49.386;8.370;2024-03-23T07:04:46;9.30;99.90
31991;DHT22;18508;49.386;8.370;2024-03-23T07:07:13;9.30;99.90
31991;DHT22;18508;49.386;8.370;2024-03-23T07:09:39;9.30;99.90
31991;DHT22;18508;49.386;8.370;2024-03-23T07:12:06;9.20;99.90
31991;DHT22;18508;49.386;8.370;2024-03-23T07:14:33;9.30;99.90
31991;DHT22;18508;49.386;8.370;2024-03-23T07:17:01;9.30;99.90
31991;DHT22;18508;49.386;8.370;2024-03-23T07:19:27;9.20;99.90
31991;DHT22;18508;49.386;8.370;2024-03-23T07:21:55;9.20;99.90
31991;DHT22;18508;49.386;8.370;2024-03-23T07:24:21;9.10;99.90
31991;DHT22;18508;49.386;8.370;2024-03-23T07:26:48;9.10;99.90
31991;DHT22;18508;49.386;8.370;2024-03-23T07:29:15;9.10;99.90
31991;DHT22;18508;49.386;8.370;2024-03-23T07:31:43;9.20;99.90
31991;DHT22;18508;49.386;8.370;2024-03-23T07:34:10;9.30;99.90
31991;DHT22;18508;49.386;8.370;2024-03-23T07:36:37;9.40;99.90
31991;DHT22;18508;49.386;8.370;2024-03-23T07:39:03;9.40;99.90
31991;DHT22;18508;49.386;8.370;2024-03-23T07:41:30;9.40;99.90
31991;DHT22;18508;49.386;8.370;2024-03-23T07:43:56;9.40;99.90
31991;DHT22;18508;49.386;8.370;2024-03-23T07:46:24;9.40;99.90
31991;DHT22;18508;49.386;8.370;2024-03-23T07:48:51;9.40;99.90
31991;DHT22;18508;49.386;8.370;2024-03-23T07:51:21;9.40;99.90
31991;DHT22;18508;49.386;8.370;2024-03-23T07:53:47;9.50;99.90
31991;DHT22;18508;49.386;8.370;2024-03-23T07:56:15;9.60;99.90
31991;DHT22;18508;49.386;8.370;2024-03-23T07:58:42;9.70;99.90
31991;DHT22;18508;49.386;8.370;2024-03-23T08:01:11;9.90;99.90
31991;DHT22;18508;49.386;8.370;2024-03-23T08:03:38;9.90;99.90
31991;DHT22;18508;49.386;8.370;2024-03-23T08:06:09;9.90;99.90
31991;DHT22;18508;49.386;8.370;2024-03-23T08:08:39;9.80;93.30
31991;DHT22;18508;49.386;8.370;2024-03-23T08:11:06;9.70;75.60
31991;DHT22;18508;49.386;8.370;2024-03-23T08:13:34;9.60;69.50
31991;DHT22;18508;49.386;8.370;2024-03-23T08:16:01;9.50;66.20
31991;DHT22;18508;49.386;8.370;2024-03-23T08:18:29;9.40;65.90
31991;DHT22;18508;49.386;8.370;2024-03-23T08:20:58;9.70;81.70
31991;DHT22;18508;49.386;8.370;2024-03-23T08:23:25;9.50;87.80
31991;DHT22;18508;49.386;8.370;2024-03-23T08:25:57;10.00;85.30
31991;DHT22;18508;49.386;8.370;2024-03-23T08:28:24;10.10;80.00
31991;DHT22;18508;49.386;8.370;2024-03-23T08:30:51;9.90;53.90
31991;DHT22;18508;49.386;8.370;2024-03-23T08:33:18;9.90;53.50
31991;DHT22;18508;49.386;8.370;2024-03-23T08:35:53;9.90;49.70
31991;DHT22;18508;49.386;8.370;2024-03-23T08:38:21;10.00;50.90
31991;DHT22;18508;49.386;8.370;2024-03-23T08:40:47;10.10;51.90
31991;DHT22;18508;49.386;8.370;2024-03-23T08:43:16;10.30;53.70
31991;DHT22;18508;49.386;8.370;2024-03-23T08:45:42;10.20;50.80
31991;DHT22;18508;49.386;8.370;2024-03-23T08:48:09;10.20;48.20
31991;DHT22;18508;49.386;8.370;2024-03-23T08:50:35;10.30;49.90
31991;DHT22;18508;49.386;8.370;2024-03-23T08:53:03;10.30;46.20
31991;DHT22;18508;49.386;8.370;2024-03-23T08:55:29;10.30;46.40
31991;DHT22;18508;49.386;8.370;2024-03-23T08:57:56;10.30;28.50
31991;DHT22;18508;49.386;8.370;2024-03-23T09:00:23;10.40;23.40
31991;DHT22;18508;49.386;8.370;2024-03-23T09:02:50;11.10;20.00
31991;DHT22;18508;49.386;8.370;2024-03-23T09:05:16;11.00;16.10
31991;DHT22;18508;49.386;8.370;2024-03-23T09:07:43;11.30;11.70
31991;DHT22;18508;49.386;8.370;2024-03-23T09:10:10;11.90;11.80
31991;DHT22;18508;49.386;8.370;2024-03-23T09:12:37;11.80;8.60
31991;DHT22;18508;49.386;8.370;2024-03-23T09:15:04;11.60;4.60
31991;DHT22;18508;49.386;8.370;2024-03-23T09:17:32;11.30;2.20
31991;DHT22;18508;49.386;8.370;2024-03-23T09:19:59;11.20;1.50
31991;DHT22;18508;49.386;8.370;2024-03-23T09:22:26;11.00;2.40
31991;DHT22;18508;49.386;8.370;2024-03-23T09:24:52;11.00;1.00
31991;DHT22;18508;49.386;8.370;2024-03-23T09:27:19;11.00;1.00
31991;DHT22;18508;49.386;8.370;2024-03-23T09:29:45;10.80;1.00
31991;DHT22;18508;49.386;8.370;2024-03-23T09:32:12;10.80;1.00
31991;DHT22;18508;49.386;8.370;2024-03-23T09:34:39;10.80;1.00
31991;DHT22;18508;49.386;8.370;2024-03-23T09:37:06;10.80;1.00
31991;DHT22;18508;49.386;8.370;2024-03-23T09:39:33;10.80;1.00
31991;DHT22;18508;49.386;8.370;2024-03-23T09:42:00;10.70;1.00
31991;DHT22;18508;49.386;8.370;2024-03-23T09:44:29;10.90;1.00
31991;DHT22;18508;49.386;8.370;2024-03-23T09:46:58;10.70;1.00
31991;DHT22;18508;49.386;8.370;2024-03-23T09:49:25;10.90;1.00
31991;DHT22;18508;49.386;8.370;2024-03-23T09:51:53;10.90;1.00
31991;DHT22;18508;49.386;8.370;2024-03-23T09:54:21;11.00;1.00
31991;DHT22;18508;49.386;8.370;2024-03-23T09:56:48;10.90;1.00
31991;DHT22;18508;49.386;8.370;2024-03-23T09:59:15;11.20;1.00
31991;DHT22;18508;49.386;8.370;2024-03-23T10:01:42;11.40;1.00
31991;DHT22;18508;49.386;8.370;2024-03-23T10:04:08;11.40;1.00
31991;DHT22;18508;49.386;8.370;2024-03-23T10:06:35;11.40;1.00
31991;DHT22;18508;49.386;8.370;2024-03-23T10:09:16;11.40;1.00
31991;DHT22;18508;49.386;8.370;2024-03-23T10:11:43;11.50;1.00
31991;DHT22;18508;49.386;8.370;2024-03-23T10:14:29;11.80;1.00
31991;DHT22;18508;49.386;8.370;2024-03-23T10:17:12;12.10;1.00
31991;DHT22;18508;49.386;8.370;2024-03-23T10:19:39;12.40;1.00
31991;DHT22;18508;49.386;8.370;2024-03-23T10:22:08;12.60;1.00
31991;DHT22;18508;49.386;8.370;2024-03-23T10:24:35;12.50;1.00
31991;DHT22;18508;49.386;8.370;2024-03-23T10:27:03;12.60;1.00
31991;DHT22;18508;49.386;8.370;2024-03-23T10:29:29;12.70;1.00
31991;DHT22;18508;49.386;8.370;2024-03-23T10:32:07;12.80;1.00
31991;DHT22;18508;49.386;8.370;2024-03-23T10:34:34;12.80;1.00
31991;DHT22;18508;49.386;8.370;2024-03-23T10:37:02;12.50;1.00
31991;DHT22;18508;49.386;8.370;2024-03-23T10:39:31;12.30;1.00
31991;DHT22;18508;49.386;8.370;2024-03-23T10:42:01;12.10;1.00
31991;DHT22;18508;49.386;8.370;2024-03-23T10:44:28;11.90;1.00
31991;DHT22;18508;49.386;8.370;2024-03-23T10:46:57;11.80;1.00
31991;DHT22;18508;49.386;8.370;2024-03-23T10:49:27;12.00;1.00
31991;DHT22;18508;49.386;8.370;2024-03-23T10:52:00;12.30;1.00
31991;DHT22;18508;49.386;8.370;2024-03-23T10:54:27;12.40;1.00
31991;DHT22;18508;49.386;8.370;2024-03-23T10:57:02;12.20;1.00
31991;DHT22;18508;49.386;8.370;2024-03-23T10:59:29;12.10;1.00
31991;DHT22;18508;49.386;8.370;2024-03-23T11:01:58;12.20;1.00
31991;DHT22;18508;49.386;8.370;2024-03-23T11:04:35;12.20;1.00
31991;DHT22;18508;49.386;8.370;2024-03-23T11:07:28;12.30;1.00
31991;DHT22;18508;49.386;8.370;2024-03-23T11:09:55;12.60;1.00
31991;DHT22;18508;49.386;8.370;2024-03-23T11:12:30;12.50;1.00
31991;DHT22;18508;49.386;8.370;2024-03-23T11:15:02;12.50;1.00
31991;DHT22;18508;49.386;8.370;2024-03-23T11:17:29;12.50;1.00
31991;DHT22;18508;49.386;8.370;2024-03-23T11:19:57;12.50;1.00
31991;DHT22;18508;49.386;8.370;2024-03-23T11:22:38;12.30;1.00
31991;DHT22;18508;49.386;8.370;2024-03-23T11:25:13;12.30;1.00
31991;DHT22;18508;49.386;8.370;2024-03-23T11:27:41;12.30;1.00
31991;DHT22;18508;49.386;8.370;2024-03-23T11:30:15;12.30;1.00
31991;DHT22;18508;49.386;8.370;2024-03-23T11:32:44;12.60;1.00
31991;DHT22;18508;49.386;8.370;2024-03-23T11:35:10;12.60;1.00
31991;DHT22;18508;49.386;8.370;2024-03-23T11:37:38;12.50;1.00
31991;DHT22;18508;49.386;8.370;2024-03-23T11:40:20;12.40;1.00
31991;DHT22;18508;49.386;8.370;2024-03-23T11:42:55;12.20;1.00
31991;DHT22;18508;49.386;8.370;2024-03-23T11:45:21;12.00;1.00
31991;DHT22;18508;49.386;8.370;2024-03-23T11:47:48;11.30;1.00
31991;DHT22;18508;49.386;8.370;2024-03-23T11:50:19;10.60;1.00
31991;DHT22;18508;49.386;8.370;2024-03-23T11:52:48;10.30;1.00
31991;DHT22;18508;49.386;8.370;2024-03-23T11:55:16;10.00;1.00
31991;DHT22;18508;49.386;8.370;2024-03-23T11:57:43;9.90;1.00
31991;DHT22;18508;49.386;8.370;2024-03-23T12:00:22;9.60;22.80
31991;DHT22;18508;49.386;8.370;2024-03-23T12:02:49;9.20;99.90
31991;DHT22;18508;49.386;8.370;2024-03-23T12:05:16;8.80;99.90
31991;DHT22;18508;49.386;8.370;2024-03-23T12:07:43;8.70;34.90
31991;DHT22;18508;49.386;8.370;2024-03-23T12:10:09;8.70;1.00
31991;DHT22;18508;49.386;8.370;2024-03-23T12:12:36;8.80;1.00
31991;DHT22;18508;49.386;8.370;2024-03-23T12:15:04;9.00;1.00
31991;DHT22;18508;49.386;8.370;2024-03-23T12:17:33;9.10;99.90
31991;DHT22;18508;49.386;8.370;2024-03-23T12:20:00;9.00;99.90
31991;DHT22;18508;49.386;8.370;2024-03-23T12:22:30;8.70;82.90
31991;DHT22;18508;49.386;8.370;2024-03-23T12:24:56;8.70;99.90
31991;DHT22;18508;49.386;8.370;2024-03-23T12:27:24;8.90;99.90
31991;DHT22;18508;49.386;8.370;2024-03-23T12:29:50;9.40;99.90
31991;DHT22;18508;49.386;8.370;2024-03-23T12:32:17;9.60;99.90
31991;DHT22;18508;49.386;8.370;2024-03-23T12:34:45;9.80;96.00
31991;DHT22;18508;49.386;8.370;2024-03-23T12:37:13;9.70;95.90
31991;DHT22;18508;49.386;8.370;2024-03-23T12:42:06;9.40;93.90
31991;DHT22;18508;49.386;8.370;2024-03-23T12:44:32;9.20;96.50
31991;DHT22;18508;49.386;8.370;2024-03-23T12:46:59;9.00;94.00
31991;DHT22;18508;49.386;8.370;2024-03-23T12:49:25;9.00;99.90
31991;DHT22;18508;49.386;8.370;2024-03-23T12:51:57;8.90;99.90
31991;DHT22;18508;49.386;8.370;2024-03-23T12:54:23;8.60;99.90
31991;DHT22;18508;49.386;8.370;2024-03-23T12:56:50;7.50;99.90
31991;DHT22;18508;49.386;8.370;2024-03-23T12:59:17;6.60;99.90
31991;DHT22;18508;49.386;8.370;2024-03-23T13:01:44;6.00;99.90
31991;DHT22;18508;49.386;8.370;2024-03-23T13:04:10;5.80;99.90
31991;DHT22;18508;49.386;8.370;2024-03-23T13:06:37;5.80;99.90
31991;DHT22;18508;49.386;8.370;2024-03-23T13:09:05;6.20;99.90
31991;DHT22;18508;49.386;8.370;2024-03-23T13:11:32;6.70;99.90
31991;DHT22;18508;49.386;8.370;2024-03-23T13:13:58;7.00;99.90
31991;DHT22;18508;49.386;8.370;2024-03-23T13:16:25;7.50;99.90
31991;DHT22;18508;49.386;8.370;2024-03-23T13:18:51;7.80;99.90
31991;DHT22;18508;49.386;8.370;2024-03-23T13:21:18;8.00;99.90
31991;DHT22;18508;49.386;8.370;2024-03-23T13:23:46;8.00;99.90
31991;DHT22;18508;49.386;8.370;2024-03-23T13:26:18;8.10;99.90
31991;DHT22;18508;49.386;8.370;2024-03-23T13:28:44;8.30;99.90
31991;DHT22;18508;49.386;8.370;2024-03-23T13:31:11;8.30;99.90
31991;DHT22;18508;49.386;8.370;2024-03-23T13:33:37;8.20;99.90
31991;DHT22;18508;49.386;8.370;2024-03-23T13:36:06;8.40;99.90
31991;DHT22;18508;49.386;8.370;2024-03-23T13:38:32;8.90;99.90
31991;DHT22;18508;49.386;8.370;2024-03-23T13:40:59;9.00;99.90
31991;DHT22;18508;49.386;8.370;2024-03-23T13:43:27;8.80;99.90
31991;DHT22;18508;49.386;8.370;2024-03-23T13:45:56;8.70;99.90
31991;DHT22;18508;49.386;8.370;2024-03-23T13:48:23;8.80;99.90
31991;DHT22;18508;49.386;8.370;2024-03-23T13:50:57;8.80;1.00
31991;DHT22;18508;49.386;8.370;2024-03-23T13:53:23;8.40;99.90
31991;DHT22;18508;49.386;8.370;2024-03-23T13:55:50;8.20;99.90
31991;DHT22;18508;49.386;8.370;2024-03-23T13:58:16;8.50;1.00
31991;DHT22;18508;49.386;8.370;2024-03-23T14:00:45;8.90;77.30
31991;DHT22;18508;49.386;8.370;2024-03-23T14:03:12;9.10;99.90
31991;DHT22;18508;49.386;8.370;2024-03-23T14:05:40;9.20;99.90
31991;DHT22;18508;49.386;8.370;2024-03-23T14:08:06;9.00;99.90
31991;DHT22;18508;49.386;8.370;2024-03-23T14:10:34;8.80;99.90
31991;DHT22;18508;49.386;8.370;2024-03-23T14:13:01;8.80;1.00
31991;DHT22;18508;49.386;8.370;2024-03-23T14:15:29;8.80;1.00
31991;DHT22;18508;49.386;8.370;2024-03-23T14:17:57;9.10;99.90
31991;DHT22;18508;49.386;8.370;2024-03-23T14:20:25;9.50;99.90
31991;DHT22;18508;49.386;8.370;2024-03-23T14:22:52;9.30;99.90
31991;DHT22;18508;49.386;8.370;2024-03-23T14:25:19;9.00;1.00
31991;DHT22;18508;49.386;8.370;2024-03-23T14:27:46;8.80;1.00
31991;DHT22;18508;49.386;8.370;2024-03-23T14:30:13;8.80;1.00
31991;DHT22;18508;49.386;8.370;2024-03-23T14:32:40;8.70;1.00
31991;DHT22;18508;49.386;8.370;2024-03-23T14:35:08;8.70;99.90
31991;DHT22;18508;49.386;8.370;2024-03-23T14:37:36;8.80;99.90
31991;DHT22;18508;49.386;8.370;2024-03-23T14:40:04;8.90;99.90
31991;DHT22;18508;49.386;8.370;2024-03-23T14:42:31;9.20;1.00
31991;DHT22;18508;49.386;8.370;2024-03-23T14:44:58;8.00;99.90
31991;DHT22;18508;49.386;8.370;2024-03-23T14:47:25;9.00;1.00
31991;DHT22;18508;49.386;8.370;2024-03-23T14:49:52;9.40;99.90
31991;DHT22;18508;49.386;8.370;2024-03-23T14:52:20;9.40;94.80
31991;DHT22;18508;49.386;8.370;2024-03-23T14:54:47;9.40;99.90
31991;DHT22;18508;49.386;8.370;2024-03-23T14:57:15;9.40;1.00
31991;DHT22;18508;49.386;8.370;2024-03-23T14:59:44;9.50;99.90
31991;DHT22;18508;49.386;8.370;2024-03-23T15:02:10;9.70;99.90
31991;DHT22;18508;49.386;8.370;2024-03-23T15:04:38;9.80;99.90
31991;DHT22;18508;49.386;8.370;2024-03-23T15:07:07;10.00;99.90
31991;DHT22;18508;49.386;8.370;2024-03-23T15:09:36;10.30;99.90
31991;DHT22;18508;49.386;8.370;2024-03-23T15:12:02;10.40;93.00
31991;DHT22;18508;49.386;8.370;2024-03-23T15:14:30;10.30;89.20
31991;DHT22;18508;49.386;8.370;2024-03-23T15:16:56;10.30;76.30
31991;DHT22;18508;49.386;8.370;2024-03-23T15:19:23;10.20;72.40
31991;DHT22;18508;49.386;8.370;2024-03-23T15:21:49;10.20;73.20
31991;DHT22;18508;49.386;8.370;2024-03-23T15:24:17;10.10;82.40
31991;DHT22;18508;49.386;8.370;2024-03-23T15:26:45;10.00;72.10
31991;DHT22;18508;49.386;8.370;2024-03-23T15:29:12;9.90;69.50
31991;DHT22;18508;49.386;8.370;2024-03-23T15:31:42;9.80;62.00
31991;DHT22;18508;49.386;8.370;2024-03-23T15:34:09;9.70;55.00
31991;DHT22;18508;49.386;8.370;2024-03-23T15:36:36;9.40;66.90
31991;DHT22;18508;49.386;8.370;2024-03-23T15:39:04;9.10;70.00
31991;DHT22;18508;49.386;8.370;2024-03-23T15:41:30;7.70;1.00
31991;DHT22;18508;49.386;8.370;2024-03-23T15:44:01;6.50;48.80
31991;DHT22;18508;49.386;8.370;2024-03-23T15:46:27;5.60;1.00
31991;DHT22;18508;49.386;8.370;2024-03-23T15:48:54;5.20;99.90
31991;DHT22;18508;49.386;8.370;2024-03-23T15:51:21;5.10;99.90
31991;DHT22;18508;49.386;8.370;2024-03-23T15:53:48;5.10;99.90
31991;DHT22;18508;49.386;8.370;2024-03-23T15:56:18;5.30;99.90
31991;DHT22;18508;49.386;8.370;2024-03-23T15:58:45;5.70;37.20
31991;DHT22;18508;49.386;8.370;2024-03-23T16:01:13;7.00;1.00
31991;DHT22;18508;49.386;8.370;2024-03-23T16:03:40;8.40;1.00
31991;DHT22;18508;49.386;8.370;2024-03-23T16:06:07;9.40;99.90
31991;DHT22;18508;49.386;8.370;2024-03-23T16:08:34;9.60;96.70
31991;DHT22;18508;49.386;8.370;2024-03-23T16:11:01;9.40;66.50
31991;DHT22;18508;49.386;8.370;2024-03-23T16:13:29;8.70;76.20
31991;DHT22;18508;49.386;8.370;2024-03-23T16:15:56;8.70;62.90
31991;DHT22;18508;49.386;8.370;2024-03-23T16:18:25;8.40;74.80
31991;DHT22;18508;49.386;8.370;2024-03-23T16:20:55;8.20;71.00
31991;DHT22;18508;49.386;8.370;2024-03-23T16:23:22;8.10;75.20
31991;DHT22;18508;49.386;8.370;2024-03-23T16:25:49;7.90;70.50
31991;DHT22;18508;49.386;8.370;2024-03-23T16:28:23;8.00;89.40
31991;DHT22;18508;49.386;8.370;2024-03-23T16:30:54;7.80;92.40
31991;DHT22;18508;49.386;8.370;2024-03-23T16:33:21;7.70;99.90
31991;DHT22;18508;49.386;8.370;2024-03-23T16:35:56;7.50;99.90
31991;DHT22;18508;49.386;8.370;2024-03-23T16:38:24;7.40;99.90
31991;DHT22;18508;49.386;8.370;2024-03-23T16:40:54;7.30;99.90